Aviation Digital Data Service (ADDS)

Output produced by METARs form (0839 UTC 23 October 2014)
found at http://aviationweather.gov/adds/metars/
 
KLFT 230522Z 2306/2406 05005KT P6SM SKC 
     FM231500 06007KT P6SM SCT250